Time;durP1;ratioP1;P1;durP2;ratioP2;P2;SDS_P1;SDS_P2;PMS_P1;PMS_P2;Temp;Humidity;BMP_temperature;BMP_pressure;BME280_temperature;BME280_humidity;BME280_pressure;Samples;Min_cycle;Max_cycle;Signal;HPM_P1;HPM_P2
2023/08/23 00:02:15;;;;;;;12.77;9.40;;;19.30;99.90;;;;;;5093981;28;20235;-74
2023/08/23 00:04:40;;;;;;;13.25;8.88;;;19.30;99.90;;;;;;5092824;28;20168;-74
2023/08/23 00:07:06;;;;;;;11.02;8.18;;;19.30;99.90;;;;;;5094197;28;20709;-74
2023/08/23 00:09:31;;;;;;;13.88;8.90;;;19.30;99.90;;;;;;5094185;28;20172;-74
2023/08/23 00:11:57;;;;;;;10.73;8.57;;;19.30;99.90;;;;;;5094187;28;20685;-74
2023/08/23 00:14:23;;;;;;;9.57;8.68;;;19.40;99.90;;;;;;5094107;28;20207;-74
2023/08/23 00:16:48;;;;;;;16.67;9.18;;;19.30;99.90;;;;;;5093766;28;20258;-74
2023/08/23 00:19:14;;;;;;;12.10;9.18;;;19.30;99.90;;;;;;5093719;28;20567;-74
2023/08/23 00:21:39;;;;;;;11.77;8.68;;;19.20;99.90;;;;;;5093937;28;20225;-75
2023/08/23 00:24:05;;;;;;;13.95;9.23;;;19.20;99.90;;;;;;5093966;28;20470;-75
2023/08/23 00:26:30;;;;;;;14.93;9.30;;;19.20;99.90;;;;;;5093853;28;20207;-74
2023/08/23 00:28:56;;;;;;;11.98;9.07;;;19.30;99.90;;;;;;5093808;28;20237;-74
2023/08/23 00:31:22;;;;;;;9.98;7.72;;;19.30;99.90;;;;;;5093539;28;20685;-74
2023/08/23 00:33:48;;;;;;;12.95;8.70;;;19.20;99.90;;;;;;5093981;28;20167;-74
2023/08/23 00:36:13;;;;;;;11.00;9.82;;;19.20;99.90;;;;;;5093616;28;20176;-74
2023/08/23 00:38:39;;;;;;;11.88;8.73;;;19.10;99.90;;;;;;5093509;28;20164;-74
2023/08/23 00:41:04;;;;;;;14.52;10.00;;;19.10;99.90;;;;;;5093804;28;20627;-74
2023/08/23 00:43:30;;;;;;;13.23;9.55;;;19.00;99.90;;;;;;5093862;28;20523;-74
2023/08/23 00:45:56;;;;;;;15.15;9.90;;;18.90;99.90;;;;;;5093158;28;20663;-75
2023/08/23 00:48:21;;;;;;;11.13;9.45;;;18.90;99.90;;;;;;5093670;28;20635;-74
2023/08/23 00:50:48;;;;;;;17.00;11.20;;;18.90;99.90;;;;;;5093384;28;20623;-74
2023/08/23 00:53:14;;;;;;;17.20;11.30;;;18.90;99.90;;;;;;5093800;28;20160;-74
2023/08/23 00:55:40;;;;;;;16.27;9.18;;;18.90;99.90;;;;;;5093466;28;20172;-74
2023/08/23 00:58:06;;;;;;;16.83;9.75;;;18.90;99.90;;;;;;5093483;28;20171;-74
2023/08/23 01:00:33;;;;;;;15.63;10.80;;;19.00;99.90;;;;;;5093022;28;20178;-74
2023/08/23 01:02:59;;;;;;;17.77;12.55;;;19.00;99.90;;;;;;5093294;28;20172;-74
2023/08/23 01:05:48;;;;;;;11.15;9.25;;;18.90;99.90;;;;;;5093345;28;20164;-74
2023/08/23 01:08:45;;;;;;;16.67;11.68;;;18.90;99.90;;;;;;5093641;28;20200;-74
2023/08/23 01:11:25;;;;;;;10.93;8.25;;;18.80;99.90;;;;;;5093309;28;20167;-75
2023/08/23 01:14:08;;;;;;;9.57;7.38;;;18.80;99.90;;;;;;5091705;28;20176;-73
2023/08/23 01:16:35;;;;;;;9.60;7.70;;;18.80;99.90;;;;;;5093382;28;20202;-74
2023/08/23 01:19:09;;;;;;;9.85;7.75;;;18.70;99.90;;;;;;5092924;28;20211;-74
2023/08/23 01:21:38;;;;;;;10.20;8.13;;;18.70;99.90;;;;;;5093290;28;20179;-75
2023/08/23 01:24:08;;;;;;;12.00;8.05;;;18.70;99.90;;;;;;5093004;28;20172;-74
2023/08/23 01:26:39;;;;;;;11.00;8.00;;;18.70;99.90;;;;;;5093165;28;20226;-74
2023/08/23 01:29:04;;;;;;;9.55;7.82;;;18.70;99.90;;;;;;5091531;28;20642;-74
2023/08/23 01:31:35;;;;;;;9.88;7.65;;;18.60;99.90;;;;;;5091824;28;20180;-74
2023/08/23 01:34:09;;;;;;;10.52;8.00;;;18.60;99.90;;;;;;5093168;28;20230;-73
2023/08/23 01:36:40;;;;;;;10.43;8.30;;;18.60;99.90;;;;;;5092962;28;20160;-75
2023/08/23 01:39:07;;;;;;;8.68;7.50;;;18.70;99.90;;;;;;5092955;28;20167;-75
2023/08/23 01:41:33;;;;;;;16.27;8.10;;;18.60;99.90;;;;;;5093080;28;20172;-74
2023/08/23 01:43:59;;;;;;;15.13;8.63;;;18.50;99.90;;;;;;5092854;28;20183;-74
2023/08/23 01:46:24;;;;;;;13.75;8.77;;;18.40;99.90;;;;;;5092895;28;20195;-73
2023/08/23 01:48:50;;;;;;;14.90;8.60;;;18.40;99.90;;;;;;5093024;28;20168;-73
2023/08/23 01:51:15;;;;;;;10.43;8.40;;;18.40;99.90;;;;;;5096731;28;20171;-76
2023/08/23 01:53:41;;;;;;;8.50;7.78;;;18.40;99.90;;;;;;5097002;28;20639;-75
2023/08/23 01:56:07;;;;;;;12.15;8.45;;;18.30;99.90;;;;;;5096975;28;20168;-74
2023/08/23 01:58:32;;;;;;;10.77;8.35;;;18.30;99.90;;;;;;5096653;28;20749;-74
2023/08/23 02:00:58;;;;;;;10.82;8.10;;;18.20;99.90;;;;;;5096618;28;20186;-74
2023/08/23 02:03:24;;;;;;;10.52;8.27;;;18.20;99.90;;;;;;5096663;28;20571;-73
2023/08/23 02:05:49;;;;;;;10.90;8.88;;;18.20;99.90;;;;;;5096384;28;20236;-74
2023/08/23 02:08:15;;;;;;;11.80;9.10;;;18.10;99.90;;;;;;5096550;28;20202;-74
2023/08/23 02:10:41;;;;;;;12.57;9.27;;;18.10;99.90;;;;;;5096470;28;20164;-74
2023/08/23 02:13:07;;;;;;;13.55;9.15;;;18.10;99.90;;;;;;5096378;28;20245;-74
2023/08/23 02:15:33;;;;;;;10.27;8.88;;;18.00;99.90;;;;;;5096476;28;20628;-75
2023/08/23 02:17:59;;;;;;;13.63;9.32;;;17.90;99.90;;;;;;5094786;28;20211;-74
2023/08/23 02:20:24;;;;;;;11.98;8.80;;;17.90;99.90;;;;;;5096242;28;20171;-74
2023/08/23 02:22:50;;;;;;;9.73;8.48;;;17.90;99.90;;;;;;5096336;28;20164;-74
2023/08/23 02:25:16;;;;;;;12.50;8.63;;;18.00;99.90;;;;;;5096373;28;20196;-74
2023/08/23 02:27:41;;;;;;;9.82;8.82;;;18.00;99.90;;;;;;5095861;28;20294;-74
2023/08/23 02:30:07;;;;;;;10.27;9.32;;;18.00;99.90;;;;;;5096116;28;20164;-73
2023/08/23 02:32:34;;;;;;;11.68;9.10;;;18.00;99.90;;;;;;5096129;28;20172;-73
2023/08/23 02:35:01;;;;;;;13.45;9.02;;;18.00;99.90;;;;;;5095986;28;20643;-74
2023/08/23 02:37:27;;;;;;;11.73;9.02;;;18.00;99.90;;;;;;5096208;28;20175;-74
2023/08/23 02:39:52;;;;;;;14.75;9.23;;;17.90;99.90;;;;;;5095776;28;20180;-74
2023/08/23 02:42:18;;;;;;;9.97;8.80;;;17.90;99.90;;;;;;5095620;28;20164;-74
2023/08/23 02:44:44;;;;;;;12.80;8.55;;;17.80;99.90;;;;;;5095856;28;20526;-74
2023/08/23 02:47:09;;;;;;;12.80;8.70;;;17.80;99.90;;;;;;5094498;28;20215;-74
2023/08/23 02:49:35;;;;;;;13.82;8.23;;;17.80;99.90;;;;;;5095727;28;20182;-74
2023/08/23 02:52:01;;;;;;;11.15;8.48;;;17.80;99.90;;;;;;5095707;28;20180;-74
2023/08/23 02:54:26;;;;;;;11.23;8.40;;;17.90;99.90;;;;;;5095665;28;20172;-74
2023/08/23 02:56:52;;;;;;;15.38;9.23;;;18.00;99.90;;;;;;5095255;28;20179;-74
2023/08/23 02:59:17;;;;;;;11.80;9.27;;;18.00;99.90;;;;;;5095597;28;20634;-73
2023/08/23 03:01:43;;;;;;;11.52;8.57;;;17.90;99.90;;;;;;5094158;28;20655;-73
2023/08/23 03:04:09;;;;;;;12.02;8.45;;;18.00;99.90;;;;;;5095446;28;20164;-73
2023/08/23 03:06:34;;;;;;;16.70;8.90;;;18.00;99.90;;;;;;5095295;28;20206;-75
2023/08/23 03:09:00;;;;;;;18.02;9.25;;;18.00;99.90;;;;;;5095406;28;20180;-74
2023/08/23 03:11:25;;;;;;;16.08;8.30;;;18.00;99.90;;;;;;5094806;28;20172;-74
2023/08/23 03:13:51;;;;;;;14.93;8.55;;;18.00;99.90;;;;;;5095190;28;20184;-73
2023/08/23 03:16:16;;;;;;;15.30;8.52;;;18.00;99.90;;;;;;5095152;28;20164;-73
2023/08/23 03:18:42;;;;;;;18.10;8.32;;;18.00;99.90;;;;;;5094638;28;20737;-73
2023/08/23 03:21:08;;;;;;;14.27;8.27;;;18.00;99.90;;;;;;5095079;28;20204;-73
2023/08/23 03:23:33;;;;;;;10.30;8.20;;;18.00;99.90;;;;;;5093743;28;20211;-74
2023/08/23 03:25:59;;;;;;;16.38;8.68;;;18.00;99.90;;;;;;5094601;28;20195;-74
2023/08/23 03:28:24;;;;;;;14.23;8.38;;;18.00;99.90;;;;;;5094620;28;20182;-73
2023/08/23 03:30:50;;;;;;;16.33;8.15;;;18.00;99.90;;;;;;5094653;28;20249;-74
2023/08/23 03:33:16;;;;;;;13.45;8.43;;;17.90;99.90;;;;;;5093378;28;20211;-73
2023/08/23 03:35:42;;;;;;;17.20;8.00;;;17.80;99.90;;;;;;5094968;28;20178;-73
2023/08/23 03:38:07;;;;;;;14.35;8.70;;;17.70;99.90;;;;;;5094587;28;20168;-73
2023/08/23 03:40:39;;;;;;;15.82;8.73;;;17.70;99.90;;;;;;5094179;28;20217;-73
2023/08/23 03:43:05;;;;;;;14.27;8.40;;;17.70;99.90;;;;;;5094278;28;20207;-74
2023/08/23 03:45:31;;;;;;;16.77;8.55;;;17.70;99.90;;;;;;5094398;28;20195;-74
2023/08/23 03:47:57;;;;;;;14.90;8.30;;;17.60;99.90;;;;;;5094373;28;20238;-73
2023/08/23 03:50:22;;;;;;;14.63;7.78;;;17.60;99.90;;;;;;5093971;28;20210;-73
2023/08/23 03:52:48;;;;;;;12.52;7.50;;;17.60;99.90;;;;;;5094150;28;20262;-73
2023/08/23 03:55:13;;;;;;;17.95;8.55;;;17.60;99.90;;;;;;5093857;28;20176;-73
2023/08/23 03:57:39;;;;;;;13.75;8.45;;;17.60;99.90;;;;;;5094048;28;20176;-72
2023/08/23 04:00:06;;;;;;;19.45;9.05;;;17.50;99.90;;;;;;5094049;28;20168;-73
2023/08/23 04:02:31;;;;;;;13.50;8.27;;;17.50;99.90;;;;;;5093859;28;20214;-72
2023/08/23 04:04:57;;;;;;;21.40;9.10;;;17.50;99.90;;;;;;5094014;28;20257;-72
2023/08/23 04:07:22;;;;;;;15.98;9.43;;;17.50;99.90;;;;;;5093837;28;20261;-73
2023/08/23 04:09:48;;;;;;;14.97;8.97;;;17.50;99.90;;;;;;5093790;28;20567;-73
2023/08/23 04:12:14;;;;;;;13.00;8.77;;;17.50;99.90;;;;;;5093264;28;20180;-72
2023/08/23 04:14:39;;;;;;;13.88;8.80;;;17.40;99.90;;;;;;5093666;28;20623;-73
2023/08/23 04:17:05;;;;;;;16.53;9.27;;;17.40;99.90;;;;;;5092405;28;20262;-74
2023/08/23 04:19:31;;;;;;;12.37;9.00;;;17.40;99.90;;;;;;5093628;28;20227;-72
2023/08/23 04:21:56;;;;;;;14.02;9.52;;;17.40;99.90;;;;;;5093204;28;20172;-73
2023/08/23 04:24:22;;;;;;;15.83;9.47;;;17.50;99.90;;;;;;5093691;28;20168;-74
2023/08/23 04:26:48;;;;;;;13.85;10.23;;;17.40;99.90;;;;;;5093557;28;20203;-73
2023/08/23 04:29:14;;;;;;;12.57;9.73;;;17.50;99.90;;;;;;5092321;28;20646;-73
2023/08/23 04:31:39;;;;;;;16.33;9.50;;;17.50;99.90;;;;;;5093416;28;20229;-73
2023/08/23 04:34:05;;;;;;;13.70;9.48;;;17.40;99.90;;;;;;5093317;28;20172;-73
2023/08/23 04:36:31;;;;;;;17.97;10.57;;;17.40;99.90;;;;;;5093273;28;20229;-73
2023/08/23 04:38:57;;;;;;;19.97;11.30;;;17.50;99.90;;;;;;5093424;28;20262;-73
2023/08/23 04:41:23;;;;;;;20.27;11.30;;;17.50;99.90;;;;;;5093315;28;20256;-73
2023/08/23 04:43:49;;;;;;;18.02;11.70;;;17.60;99.90;;;;;;5091430;28;20178;-73
2023/08/23 04:46:14;;;;;;;16.20;11.80;;;17.60;99.90;;;;;;5091529;28;20867;-73
2023/08/23 04:48:40;;;;;;;21.77;12.30;;;17.60;99.90;;;;;;5093565;28;20171;-74
2023/08/23 04:51:09;;;;;;;19.13;10.98;;;17.60;99.90;;;;;;5092386;28;20180;-74
2023/08/23 04:53:36;;;;;;;22.40;10.57;;;17.60;99.90;;;;;;5093040;28;20175;-73
2023/08/23 04:56:02;;;;;;;22.88;11.27;;;17.60;99.90;;;;;;5093051;28;20176;-74
2023/08/23 04:58:31;;;;;;;26.50;10.57;;;17.60;99.90;;;;;;5091526;28;20198;-73
2023/08/23 05:01:04;;;;;;;23.27;10.57;;;17.60;99.90;;;;;;5093059;28;20247;-73
2023/08/23 05:03:34;;;;;;;27.20;11.23;;;17.70;99.90;;;;;;5092994;28;20213;-73
2023/08/23 05:06:00;;;;;;;18.35;10.75;;;18.00;99.90;;;;;;5092571;28;20174;-73
2023/08/23 05:08:27;;;;;;;17.02;11.70;;;18.40;99.90;;;;;;5092738;28;20241;-73
2023/08/23 05:10:52;;;;;;;19.00;12.20;;;18.70;99.90;;;;;;5092608;28;20176;-74
2023/08/23 05:13:19;;;;;;;15.70;10.65;;;19.10;99.90;;;;;;5092578;28;20172;-73
2023/08/23 05:15:45;;;;;;;20.75;10.85;;;19.70;99.90;;;;;;5092873;28;20191;-73
2023/08/23 05:18:12;;;;;;;16.55;10.30;;;20.40;99.90;;;;;;5092399;28;20239;-72
2023/08/23 05:20:37;;;;;;;16.67;9.95;;;21.10;99.90;;;;;;5092373;28;20217;-74
2023/08/23 05:23:03;;;;;;;20.52;9.50;;;21.70;99.90;;;;;;5093246;28;20623;-74
2023/08/23 05:25:29;;;;;;;13.88;9.45;;;22.40;99.90;;;;;;5094499;28;20251;-74
2023/08/23 05:27:54;;;;;;;16.10;8.70;;;23.30;99.90;;;;;;5096826;28;20218;-75
2023/08/23 05:30:20;;;;;;;14.40;8.65;;;24.20;99.90;;;;;;5096882;28;20179;-74
2023/08/23 05:32:46;;;;;;;16.33;8.70;;;24.90;99.90;;;;;;5096842;28;20512;-74
2023/08/23 05:35:11;;;;;;;15.15;8.20;;;25.50;99.90;;;;;;5096496;28;20290;-74
2023/08/23 05:37:37;;;;;;;12.48;8.30;;;26.20;99.90;;;;;;5096631;28;20176;-75
2023/08/23 05:40:03;;;;;;;16.23;8.52;;;26.60;99.90;;;;;;5096390;28;20172;-75
2023/08/23 05:42:30;;;;;;;13.57;8.57;;;27.40;99.90;;;;;;5096723;28;20697;-75
2023/08/23 05:44:56;;;;;;;14.23;8.00;;;28.10;99.90;;;;;;5096408;28;20210;-75
2023/08/23 05:47:22;;;;;;;15.45;8.45;;;28.80;97.90;;;;;;5096639;28;20211;-75
2023/08/23 05:49:48;;;;;;;16.52;8.38;;;29.40;96.50;;;;;;5096474;28;20175;-75
2023/08/23 05:52:13;;;;;;;15.93;8.45;;;29.80;94.50;;;;;;5096606;28;20174;-75
2023/08/23 05:54:39;;;;;;;14.57;8.70;;;30.40;93.00;;;;;;5096258;28;20650;-76
2023/08/23 05:57:05;;;;;;;14.43;7.68;;;30.60;91.80;;;;;;5096407;28;20246;-76
2023/08/23 05:59:31;;;;;;;13.70;8.20;;;30.80;90.80;;;;;;5096172;28;20633;-76
2023/08/23 06:01:56;;;;;;;13.90;8.05;;;30.70;90.30;;;;;;5096346;28;20258;-75
2023/08/23 06:04:22;;;;;;;17.45;12.10;;;29.90;91.30;;;;;;5093744;28;20233;-76
2023/08/23 06:06:48;;;;;;;14.85;8.48;;;29.00;93.90;;;;;;5095886;28;20199;-75
2023/08/23 06:09:13;;;;;;;13.43;8.18;;;28.10;96.40;;;;;;5095925;28;20255;-75
2023/08/23 06:11:39;;;;;;;15.15;8.80;;;28.10;97.20;;;;;;5095252;28;20224;-75
2023/08/23 06:14:24;;;;;;;17.20;8.25;;;28.20;97.10;;;;;;5096058;28;20168;-75
2023/08/23 06:16:50;;;;;;;13.13;8.27;;;29.10;95.30;;;;;;5095946;28;20245;-74
2023/08/23 06:19:16;;;;;;;14.93;7.90;;;30.00;92.90;;;;;;5094266;28;20698;-74
2023/08/23 06:21:42;;;;;;;11.13;7.95;;;31.10;90.10;;;;;;5093009;28;20298;-74
2023/08/23 06:24:08;;;;;;;9.80;7.80;;;31.40;88.00;;;;;;5094132;28;20168;-73
2023/08/23 06:26:34;;;;;;;10.60;7.40;;;31.40;87.10;;;;;;5094347;28;20605;-73
2023/08/23 06:28:59;;;;;;;14.07;7.88;;;32.70;80.60;;;;;;5094233;28;20545;-73
2023/08/23 06:31:25;;;;;;;11.52;7.32;;;33.60;74.50;;;;;;5094598;28;20178;-73
2023/08/23 06:33:51;;;;;;;12.80;7.53;;;34.00;71.10;;;;;;5094091;28;20171;-74
2023/08/23 06:36:16;;;;;;;13.73;7.10;;;34.00;68.70;;;;;;5094059;28;20324;-74
2023/08/23 06:38:42;;;;;;;7.45;6.70;;;35.10;64.70;;;;;;5094491;28;20274;-74
2023/08/23 06:41:08;;;;;;;9.93;7.00;;;35.00;61.70;;;;;;5094015;28;20168;-74
2023/08/23 06:43:33;;;;;;;12.30;7.68;;;35.30;59.40;;;;;;5093466;28;20237;-74
2023/08/23 06:46:01;;;;;;;11.65;7.13;;;35.90;58.10;;;;;;5093909;28;20711;-76
2023/08/23 06:48:26;;;;;;;9.35;6.68;;;36.50;55.20;;;;;;5093722;28;20254;-74
2023/08/23 06:50:52;;;;;;;11.27;7.13;;;36.40;53.60;;;;;;5093787;28;20678;-74
2023/08/23 06:53:18;;;;;;;9.15;6.82;;;36.70;52.50;;;;;;5093835;28;20256;-74
2023/08/23 06:55:43;;;;;;;8.48;7.07;;;37.40;50.80;;;;;;5093788;28;20171;-75
2023/08/23 06:58:09;;;;;;;11.48;8.00;;;37.30;50.00;;;;;;5093775;28;20192;-78
2023/08/23 07:00:35;;;;;;;7.45;6.57;;;37.30;49.10;;;;;;5093787;28;20645;-76
2023/08/23 07:03:01;;;;;;;6.85;6.25;;;37.30;48.50;;;;;;5093956;28;20175;-76
2023/08/23 07:05:27;;;;;;;6.75;6.05;;;37.80;47.30;;;;;;5093629;28;20229;-76
2023/08/23 07:07:53;;;;;;;7.18;6.57;;;37.90;46.60;;;;;;5093846;28;20595;-77
2023/08/23 07:10:19;;;;;;;10.23;6.80;;;38.10;46.10;;;;;;5093712;28;20270;-76
2023/08/23 07:12:45;;;;;;;7.68;6.28;;;38.20;44.50;;;;;;5093459;28;20180;-79
2023/08/23 07:15:10;;;;;;;9.43;6.00;;;38.30;44.40;;;;;;5093080;28;20220;-79
2023/08/23 07:17:36;;;;;;;9.45;5.95;;;39.00;43.60;;;;;;5041086;28;1474105;-79
2023/08/23 07:20:03;;;;;;;9.65;5.53;;;39.40;41.40;;;;;;5094387;28;20175;-78
2023/08/23 07:22:29;;;;;;;5.63;4.90;;;39.50;40.90;;;;;;5093311;28;20231;-77
2023/08/23 07:24:55;;;;;;;5.82;5.32;;;39.80;40.20;;;;;;5094763;28;20165;-78
2023/08/23 07:27:21;;;;;;;7.78;5.00;;;39.80;39.30;;;;;;5094565;28;20195;-78
2023/08/23 07:29:46;;;;;;;5.20;4.70;;;40.20;38.10;;;;;;5093500;28;20232;-80
2023/08/23 07:32:12;;;;;;;7.50;5.10;;;40.50;37.40;;;;;;5092735;28;20183;-80
2023/08/23 07:34:37;;;;;;;6.40;4.47;;;40.80;36.60;;;;;;5094245;28;20251;-80
2023/08/23 07:37:03;;;;;;;7.18;5.75;;;40.40;36.20;;;;;;5093899;28;20168;-80
2023/08/23 07:39:29;;;;;;;8.00;5.10;;;40.70;35.90;;;;;;5094955;28;20175;-76
2023/08/23 07:41:54;;;;;;;6.38;5.32;;;40.70;35.30;;;;;;5093989;28;20197;-76
2023/08/23 07:44:20;;;;;;;10.68;5.70;;;40.90;35.00;;;;;;5094293;28;20689;-75
2023/08/23 07:46:46;;;;;;;7.97;5.72;;;40.30;35.40;;;;;;5092597;28;20298;-79
2023/08/23 07:49:14;;;;;;;8.40;5.55;;;40.10;35.70;;;;;;5092621;28;20172;-79
2023/08/23 07:51:39;;;;;;;7.60;5.78;;;39.20;36.20;;;;;;5093747;28;20182;-79
2023/08/23 07:54:06;;;;;;;8.32;5.85;;;37.50;38.10;;;;;;5094289;28;20167;-76
2023/08/23 07:56:31;;;;;;;6.22;4.60;;;36.40;40.60;;;;;;5093617;28;20559;-76
2023/08/23 07:58:57;;;;;;;6.53;4.57;;;36.60;41.20;;;;;;5094089;28;20170;-79
2023/08/23 08:01:23;;;;;;;6.18;4.72;;;37.60;40.30;;;;;;5093547;28;20178;-79
2023/08/23 08:03:48;;;;;;;9.88;5.13;;;38.10;39.30;;;;;;5093278;28;20174;-76
2023/08/23 08:06:14;;;;;;;6.60;5.13;;;38.60;38.80;;;;;;5093367;28;20728;-77
2023/08/23 08:08:42;;;;;;;6.15;4.53;;;38.10;38.50;;;;;;5093785;28;20175;-77
2023/08/23 08:11:10;;;;;;;6.32;5.55;;;38.40;38.80;;;;;;5093315;28;20170;-77
2023/08/23 08:13:36;;;;;;;10.73;5.20;;;38.00;38.70;;;;;;5093715;28;20172;-77
2023/08/23 08:16:12;;;;;;;8.38;4.88;;;38.50;38.30;;;;;;5093082;28;20182;-78
2023/08/23 08:18:38;;;;;;;5.97;4.28;;;39.10;37.20;;;;;;5092993;28;20308;-78
2023/08/23 08:21:04;;;;;;;8.20;5.57;;;38.80;37.20;;;;;;5093787;28;20163;-77
2023/08/23 08:23:30;;;;;;;8.48;5.28;;;38.70;37.50;;;;;;5092869;28;20199;-79
2023/08/23 08:25:56;;;;;;;9.25;5.85;;;39.30;36.90;;;;;;5093607;28;20202;-77
2023/08/23 08:28:21;;;;;;;6.68;5.82;;;39.70;35.70;;;;;;5092969;28;20179;-75
2023/08/23 08:30:47;;;;;;;7.35;5.25;;;39.80;35.60;;;;;;5093554;28;20168;-76
2023/08/23 08:33:13;;;;;;;9.10;5.72;;;39.10;36.00;;;;;;5093073;28;20171;-78
2023/08/23 08:35:39;;;;;;;7.32;5.20;;;37.00;38.60;;;;;;5093327;28;20258;-76
2023/08/23 08:38:08;;;;;;;7.90;5.32;;;37.40;39.60;;;;;;5093230;28;20174;-79
2023/08/23 08:40:35;;;;;;;7.85;4.93;;;37.50;38.50;;;;;;5093247;28;20229;-77
2023/08/23 08:43:01;;;;;;;9.93;5.30;;;37.80;38.60;;;;;;5093052;28;20203;-77
2023/08/23 08:45:27;;;;;;;8.02;5.35;;;37.20;39.60;;;;;;5093223;28;20695;-79
2023/08/23 08:47:52;;;;;;;7.43;5.03;;;36.70;40.00;;;;;;5092996;28;20799;-80
2023/08/23 08:50:19;;;;;;;7.63;4.20;;;36.90;40.10;;;;;;5093257;28;20194;-81
2023/08/23 08:52:52;;;;;;;7.60;5.18;;;37.50;40.10;;;;;;5093186;28;20167;-81
2023/08/23 08:55:21;;;;;;;8.60;5.03;;;37.70;39.20;;;;;;5093107;28;20174;-84
2023/08/23 08:57:49;;;;;;;8.38;4.57;;;38.50;37.70;;;;;;5092999;28;20164;-81
2023/08/23 09:00:15;;;;;;;8.40;3.95;;;39.00;36.70;;;;;;5092966;28;20224;-82
2023/08/23 09:02:42;;;;;;;5.90;4.55;;;39.50;35.40;;;;;;5093045;28;20171;-81
2023/08/23 09:05:08;;;;;;;4.82;3.92;;;37.60;36.70;;;;;;5092919;28;20264;-81
2023/08/23 09:07:35;;;;;;;6.75;4.22;;;37.70;38.40;;;;;;5093042;28;20345;-79
2023/08/23 09:10:02;;;;;;;5.78;3.80;;;38.40;37.50;;;;;;5092916;28;20167;-78
2023/08/23 09:12:28;;;;;;;5.47;3.78;;;38.70;37.10;;;;;;5093033;28;20167;-77
2023/08/23 09:14:53;;;;;;;6.78;4.28;;;38.40;37.10;;;;;;5092285;28;20174;-78
2023/08/23 09:17:22;;;;;;;7.13;4.22;;;37.90;37.30;;;;;;5092474;28;20228;-78
2023/08/23 09:19:48;;;;;;;3.13;2.80;;;36.30;38.50;;;;;;5093069;28;20278;-78
2023/08/23 09:22:20;;;;;;;3.45;3.10;;;35.80;38.00;;;;;;5093217;28;20658;-82
2023/08/23 09:24:46;;;;;;;5.53;3.60;;;36.70;37.60;;;;;;5092691;28;20167;-81
2023/08/23 09:27:12;;;;;;;6.10;3.03;;;36.60;39.30;;;;;;5092189;28;20283;-79
2023/08/23 09:29:38;;;;;;;3.55;2.45;;;37.00;38.90;;;;;;5092909;28;20168;-81
2023/08/23 09:32:07;;;;;;;3.05;2.40;;;37.20;36.70;;;;;;5092459;28;20179;-79
2023/08/23 09:34:32;;;;;;;4.43;2.38;;;38.00;35.20;;;;;;5091121;28;20169;-78
2023/08/23 09:37:08;;;;;;;5.70;2.20;;;37.70;33.50;;;;;;5092452;28;20258;-79
2023/08/23 09:39:34;;;;;;;3.10;1.50;;;38.00;32.80;;;;;;5092991;28;20189;-76
2023/08/23 09:42:05;;;;;;;3.90;2.30;;;38.40;32.00;;;;;;5092107;28;20267;-78
2023/08/23 09:44:39;;;;;;;4.13;1.95;;;38.60;32.10;;;;;;5092389;28;20214;-76
2023/08/23 09:47:08;;;;;;;4.45;2.38;;;36.90;33.70;;;;;;5092584;28;20207;-77
2023/08/23 09:49:35;;;;;;;2.42;2.22;;;37.20;35.20;;;;;;5092224;28;20160;-76
2023/08/23 09:52:02;;;;;;;2.72;2.20;;;37.20;35.20;;;;;;5092309;28;20174;-78
2023/08/23 09:54:50;;;;;;;2.72;1.80;;;37.40;34.30;;;;;;5092305;28;20182;-79
2023/08/23 09:57:18;;;;;;;1.88;1.77;;;36.80;34.60;;;;;;5091817;28;20225;-78
2023/08/23 09:59:44;;;;;;;2.75;2.10;;;37.40;34.20;;;;;;5092165;28;20166;-79
2023/08/23 10:02:10;;;;;;;4.20;2.00;;;37.40;34.10;;;;;;5092381;28;20606;-79
2023/08/23 10:04:40;;;;;;;3.65;2.70;;;37.50;34.20;;;;;;5092336;28;20688;-80
2023/08/23 10:07:08;;;;;;;2.75;2.33;;;37.40;33.80;;;;;;5092319;28;20678;-78
2023/08/23 10:09:35;;;;;;;6.00;2.35;;;37.30;33.90;;;;;;5092204;28;20171;-77
2023/08/23 10:12:04;;;;;;;2.40;2.00;;;37.70;34.10;;;;;;5095434;28;20168;-79
2023/08/23 10:14:30;;;;;;;3.50;2.60;;;37.20;34.40;;;;;;5096292;28;20163;-77
2023/08/23 10:16:57;;;;;;;4.35;2.00;;;37.90;34.40;;;;;;5095874;28;20167;-77
2023/08/23 10:19:22;;;;;;;2.17;1.98;;;37.50;34.50;;;;;;5095514;28;20254;-76
2023/08/23 10:21:48;;;;;;;3.63;1.90;;;37.20;33.80;;;;;;5095583;28;20507;-80
2023/08/23 10:24:14;;;;;;;2.22;1.92;;;37.40;33.20;;;;;;5096103;28;20195;-77
2023/08/23 10:26:51;;;;;;;2.78;1.95;;;37.40;32.60;;;;;;5095226;28;20697;-77
2023/08/23 10:29:26;;;;;;;1.95;1.80;;;38.50;31.60;;;;;;5095071;28;20174;-79
2023/08/23 10:31:55;;;;;;;4.72;1.85;;;38.40;30.80;;;;;;5095382;28;20185;-81
2023/08/23 10:34:27;;;;;;;3.60;1.80;;;38.50;31.40;;;;;;5095731;28;20164;-79
2023/08/23 10:36:56;;;;;;;2.22;2.03;;;38.40;30.80;;;;;;5095668;28;20682;-80
2023/08/23 10:39:23;;;;;;;2.13;2.00;;;38.20;31.70;;;;;;5095176;28;20540;-79
2023/08/23 10:41:53;;;;;;;2.35;1.80;;;37.70;31.60;;;;;;5095566;28;20177;-77
2023/08/23 10:44:20;;;;;;;2.67;1.80;;;38.00;31.80;;;;;;5094918;28;20187;-77
2023/08/23 10:46:46;;;;;;;3.28;2.08;;;37.40;31.50;;;;;;5095205;28;20230;-76
2023/08/23 10:49:13;;;;;;;2.38;2.00;;;36.40;32.40;;;;;;5095014;28;20635;-76
2023/08/23 10:51:42;;;;;;;3.85;2.15;;;36.50;32.50;;;;;;5095202;28;20561;-76
2023/08/23 10:54:13;;;;;;;2.58;2.22;;;36.30;32.20;;;;;;5094476;28;20239;-76
2023/08/23 10:56:39;;;;;;;1.95;1.67;;;35.90;32.30;;;;;;5095161;28;20160;-76
2023/08/23 10:59:06;;;;;;;2.25;2.05;;;36.30;32.50;;;;;;5095216;28;20212;-76
2023/08/23 11:01:39;;;;;;;3.92;1.85;;;36.60;31.50;;;;;;5094699;28;20175;-77
2023/08/23 11:04:08;;;;;;;3.00;2.50;;;35.50;31.60;;;;;;5094801;28;20259;-76
2023/08/23 11:06:33;;;;;;;2.63;1.85;;;36.00;32.40;;;;;;5095275;28;20658;-76
2023/08/23 11:08:59;;;;;;;4.07;2.70;;;36.40;32.10;;;;;;5094287;28;20208;-77
2023/08/23 11:11:29;;;;;;;3.92;2.20;;;36.90;31.40;;;;;;5094794;28;20167;-76
2023/08/23 11:13:55;;;;;;;2.38;2.13;;;36.70;29.20;;;;;;5094975;28;20197;-76
2023/08/23 11:16:22;;;;;;;2.22;2.00;;;37.10;29.80;;;;;;5094253;28;20250;-77
2023/08/23 11:18:48;;;;;;;2.33;1.88;;;37.20;29.70;;;;;;5094532;28;20207;-76
2023/08/23 11:21:14;;;;;;;2.70;1.50;;;36.90;30.20;;;;;;5078233;28;20175;-78
2023/08/23 11:23:40;;;;;;;3.63;2.28;;;36.60;30.50;;;;;;5073478;28;20172;-76
2023/08/23 11:26:05;;;;;;;3.28;2.00;;;36.80;29.90;;;;;;5073799;28;20654;-78
2023/08/23 11:28:31;;;;;;;4.53;2.35;;;37.00;30.60;;;;;;5074716;28;20172;-77
2023/08/23 11:31:06;;;;;;;2.67;2.05;;;36.80;31.40;;;;;;5074122;28;20679;-79
2023/08/23 11:33:32;;;;;;;2.38;2.17;;;37.00;31.60;;;;;;5074196;28;20458;-76
2023/08/23 11:35:58;;;;;;;2.75;1.90;;;36.40;32.10;;;;;;5074259;28;20557;-75
2023/08/23 11:38:28;;;;;;;1.88;1.73;;;36.60;30.40;;;;;;5073791;28;20164;-76
2023/08/23 11:40:53;;;;;;;2.92;2.10;;;36.40;30.50;;;;;;5073853;28;20194;-76
2023/08/23 11:43:19;;;;;;;3.08;1.60;;;37.20;30.30;;;;;;5073915;28;20168;-77
2023/08/23 11:45:48;;;;;;;2.95;2.17;;;36.90;29.70;;;;;;5072521;28;20231;-79
2023/08/23 11:48:14;;;;;;;2.22;1.70;;;36.50;29.60;;;;;;5073844;28;20215;-75
2023/08/23 11:50:40;;;;;;;3.35;2.05;;;36.30;30.60;;;;;;5074313;28;20558;-77
2023/08/23 11:53:06;;;;;;;1.70;1.60;;;36.20;31.30;;;;;;5073413;28;20179;-76
2023/08/23 11:55:34;;;;;;;2.13;1.60;;;36.50;31.50;;;;;;5072833;28;20683;-74
2023/08/23 11:57:59;;;;;;;3.05;1.95;;;36.80;31.00;;;;;;5074223;28;20255;-75
2023/08/23 12:00:25;;;;;;;1.83;1.58;;;36.40;31.50;;;;;;5074109;28;20218;-76
2023/08/23 12:02:52;;;;;;;4.63;1.70;;;35.70;32.20;;;;;;5073416;28;20529;-76
2023/08/23 12:05:19;;;;;;;1.60;1.50;;;35.90;31.80;;;;;;5073437;28;20566;-76
2023/08/23 12:07:45;;;;;;;2.60;1.58;;;35.50;32.80;;;;;;5072797;28;20209;-75
2023/08/23 12:10:11;;;;;;;3.47;1.63;;;35.70;32.50;;;;;;5072081;28;20175;-75
2023/08/23 12:12:38;;;;;;;4.97;1.90;;;35.50;32.60;;;;;;5073665;28;20179;-75
2023/08/23 12:15:07;;;;;;;2.63;1.52;;;35.60;33.30;;;;;;5073544;28;20168;-76
2023/08/23 12:17:33;;;;;;;2.78;1.65;;;35.00;33.20;;;;;;5072709;28;20176;-73
2023/08/23 12:19:59;;;;;;;1.63;1.52;;;33.60;34.20;;;;;;5073595;28;20179;-74
2023/08/23 12:22:25;;;;;;;2.60;1.80;;;32.30;37.10;;;;;;5072877;28;20207;-73
2023/08/23 12:24:51;;;;;;;4.32;2.10;;;31.20;38.80;;;;;;5073204;28;20275;-72
2023/08/23 12:27:17;;;;;;;2.10;1.55;;;31.00;40.20;;;;;;5072935;28;20675;-72
2023/08/23 12:29:43;;;;;;;2.58;1.67;;;31.10;39.70;;;;;;5073201;28;20207;-73
2023/08/23 12:32:08;;;;;;;2.50;2.22;;;31.00;40.30;;;;;;5072558;28;20183;-73
2023/08/23 12:34:34;;;;;;;3.42;2.33;;;30.80;41.70;;;;;;5072762;28;20640;-72
2023/08/23 12:37:00;;;;;;;2.55;1.60;;;30.80;42.30;;;;;;5072519;28;20168;-73
2023/08/23 12:39:26;;;;;;;2.92;2.00;;;30.60;41.10;;;;;;5072913;28;20173;-74